PWSweather.com
Personal Weather Stations
Station Observations
IILEDEFR47
LagnySurMarneFR 77400

LagnySurMarneFR 77400

Lat: 48.875214, Lon: 2.718896

Elevation: 259

Station Type: DAVIS VP2 Pro+

http://www.toutletempslaniaque.net

Latest ConditionsUpdated 8:05:01 AM GMT+01:01 Friday, Jun 22, 2018
Currently Today's Max Today's Min Today's Average
Temperature 55.7°F13.2°C 55.7°F13.2°C 46.3°F7.9°C 49.9°F9.9°C
Dew Point 44.5°F6.9°C 44.5°F6.9°C 40.3°F4.6°C 41.9°F5.5°C
Winds 3.5 mph NNE5.6 kmh NNE 5.8 mph -9.3 kmh - - 0.9 mph 1.4 kmh
Wind Gusts 4.6 mph7.4 kmh 9.2 mph14.8 kmh - -
Humidity 66% 82% 65% 74%
Pressure 30.37 in1028.4 mb 30.37 in1028.4 mb 30.32 in1026.8 mb -
Hour Temp Dew Point Humidity Winds Wind Gusts Pressure Precip Precip Rate Daily Precip Total
08:05 AM 55.7°F13.2°C 44.5°F6.9°C 66% 3.5 mph NNE5.6 kmh NNE 4.6 mph7.4 kmh 30.37 in1028.4 mb - 0.00 in0.0 mm 0.00 in0.0 mm
08:00 AM 55.6°F13.1°C 44.0°F6.7°C 65% 4.6 mph N7.4 kmh N 6.9 mph11.1 kmh 30.37 in1028.4 mb - 0.00 in0.0 mm 0.00 in0.0 mm
07:55 AM 55.2°F12.9°C 44.1°F6.7°C 66% 5.8 mph N9.3 kmh N 9.2 mph14.8 kmh 30.37 in1028.4 mb - 0.00 in0.0 mm 0.00 in0.0 mm
07:50 AM 54.8°F12.7°C 44.1°F6.7°C 67% 4.6 mph N7.4 kmh N 4.6 mph7.4 kmh 30.37 in1028.4 mb - 0.00 in0.0 mm 0.00 in0.0 mm
07:45 AM 54.7°F12.6°C 44.3°F6.8°C 68% 4.6 mph N7.4 kmh N 6.9 mph11.1 kmh 30.37 in1028.4 mb - 0.00 in0.0 mm 0.00 in0.0 mm
07:40 AM 54.4°F12.4°C 44.4°F6.9°C 69% 2.3 mph NNE3.7 kmh NNE 4.6 mph7.4 kmh 30.37 in1028.4 mb - 0.00 in0.0 mm 0.00 in0.0 mm
07:35 AM 54.2°F12.3°C 43.9°F6.6°C 68% 5.8 mph N9.3 kmh N 8.1 mph13.0 kmh 30.37 in1028.4 mb - 0.00 in0.0 mm 0.00 in0.0 mm
07:30 AM 54.2°F12.3°C 43.5°F6.4°C 67% 4.6 mph N7.4 kmh N 6.9 mph11.1 kmh 30.37 in1028.4 mb - 0.00 in0.0 mm 0.00 in0.0 mm
07:25 AM 54.1°F12.3°C 44.2°F6.8°C 69% 3.5 mph NNE5.6 kmh NNE 5.8 mph9.3 kmh 30.36 in1028.1 mb - 0.00 in0.0 mm 0.00 in0.0 mm
07:20 AM 53.6°F12.0°C 44.4°F6.9°C 71% Calm Calm 2.3 mph3.7 kmh 30.36 in1028.1 mb - 0.00 in0.0 mm 0.00 in0.0 mm
07:15 AM 53.2°F11.8°C 44.1°F6.7°C 71% 2.3 mph N3.7 kmh N 3.5 mph5.6 kmh 30.36 in1028.1 mb - 0.00 in0.0 mm 0.00 in0.0 mm
07:10 AM 52.9°F11.6°C 43.7°F6.5°C 71% 4.6 mph N7.4 kmh N 4.6 mph7.4 kmh 30.36 in1028.1 mb - 0.00 in0.0 mm 0.00 in0.0 mm
07:05 AM 52.5°F11.4°C 43.4°F6.3°C 71% 1.2 mph NNE1.9 kmh NNE 2.3 mph3.7 kmh 30.36 in1028.1 mb - 0.00 in0.0 mm 0.00 in0.0 mm
07:00 AM 52.3°F11.3°C 43.9°F6.6°C 73% 1.2 mph NNE1.9 kmh NNE 3.5 mph5.6 kmh 30.36 in1028.1 mb - 0.00 in0.0 mm 0.00 in0.0 mm
06:55 AM 51.9°F11.1°C 43.9°F6.6°C 74% 1.2 mph NE1.9 kmh NE 3.5 mph5.6 kmh 30.36 in1028.1 mb - 0.00 in0.0 mm 0.00 in0.0 mm
06:50 AM 51.6°F10.9°C 43.9°F6.6°C 75% 1.2 mph NE1.9 kmh NE 2.3 mph3.7 kmh 30.36 in1028.1 mb - 0.00 in0.0 mm 0.00 in0.0 mm
06:45 AM 51.2°F10.7°C 43.5°F6.4°C 75% Calm Calm 2.3 mph3.7 kmh 30.36 in1028.1 mb - 0.00 in0.0 mm 0.00 in0.0 mm
06:40 AM 51.0°F10.6°C 43.7°F6.5°C 76% Calm Calm 1.2 mph1.9 kmh 30.36 in1028.1 mb - 0.00 in0.0 mm 0.00 in0.0 mm
06:35 AM 50.6°F10.3°C 43.7°F6.5°C 77% Calm Calm -- 30.36 in1028.1 mb - 0.00 in0.0 mm 0.00 in0.0 mm
06:30 AM 50.4°F10.2°C 43.4°F6.3°C 77% 1.2 mph N1.9 kmh N 3.5 mph5.6 kmh 30.36 in1028.1 mb - 0.00 in0.0 mm 0.00 in0.0 mm
06:25 AM 50.0°F10.0°C 43.5°F6.4°C 78% Calm Calm 2.3 mph3.7 kmh 30.36 in1028.1 mb - 0.00 in0.0 mm 0.00 in0.0 mm
06:20 AM 49.7°F9.8°C 43.4°F6.3°C 79% Calm Calm -- 30.36 in1028.1 mb - 0.00 in0.0 mm 0.00 in0.0 mm
06:15 AM 49.2°F9.6°C 43.3°F6.3°C 80% Calm Calm -- 30.36 in1028.1 mb - 0.00 in0.0 mm 0.00 in0.0 mm
06:10 AM 48.9°F9.4°C 42.7°F5.9°C 79% Calm Calm -- 30.36 in1028.1 mb - 0.00 in0.0 mm 0.00 in0.0 mm
06:05 AM 48.8°F9.3°C 42.6°F5.9°C 79% Calm Calm 1.2 mph1.9 kmh 30.36 in1028.1 mb - 0.00 in0.0 mm 0.00 in0.0 mm
06:00 AM 48.6°F9.2°C 42.4°F5.8°C 79% Calm Calm 2.3 mph3.7 kmh 30.35 in1027.8 mb - 0.00 in0.0 mm 0.00 in0.0 mm
05:55 AM 48.3°F9.1°C 42.5°F5.8°C 80% Calm Calm 1.2 mph1.9 kmh 30.35 in1027.8 mb - 0.00 in0.0 mm 0.00 in0.0 mm
05:50 AM 48.1°F8.9°C 42.2°F5.7°C 80% Calm Calm -- 30.35 in1027.8 mb - 0.00 in0.0 mm 0.00 in0.0 mm
05:45 AM 47.8°F8.8°C 42.0°F5.6°C 80% Calm Calm -- 30.35 in1027.8 mb - 0.00 in0.0 mm 0.00 in0.0 mm
05:40 AM 47.5°F8.6°C 42.0°F5.6°C 81% 1.2 mph N1.9 kmh N 2.3 mph3.7 kmh 30.35 in1027.8 mb - 0.00 in0.0 mm 0.00 in0.0 mm
05:35 AM 47.1°F8.4°C 41.9°F5.5°C 82% Calm Calm 1.2 mph1.9 kmh 30.35 in1027.8 mb - 0.00 in0.0 mm 0.00 in0.0 mm
05:30 AM 46.8°F8.2°C 41.6°F5.3°C 82% Calm Calm -- 30.35 in1027.8 mb - 0.00 in0.0 mm 0.00 in0.0 mm
05:25 AM 46.6°F8.1°C 41.4°F5.2°C 82% Calm Calm 1.2 mph1.9 kmh 30.35 in1027.8 mb - 0.00 in0.0 mm 0.00 in0.0 mm
05:20 AM 46.4°F8.0°C 41.2°F5.1°C 82% Calm Calm -- 30.35 in1027.8 mb - 0.00 in0.0 mm 0.00 in0.0 mm
05:15 AM 46.3°F7.9°C 40.8°F4.9°C 81% Calm Calm -- 30.35 in1027.8 mb - 0.00 in0.0 mm 0.00 in0.0 mm
05:10 AM 46.4°F8.0°C 40.6°F4.8°C 80% Calm Calm -- 30.35 in1027.8 mb - 0.00 in0.0 mm 0.00 in0.0 mm
05:05 AM 46.4°F8.0°C 40.6°F4.8°C 80% Calm Calm -- 30.34 in1027.4 mb - 0.00 in0.0 mm 0.00 in0.0 mm
05:00 AM 46.5°F8.1°C 40.3°F4.6°C 79% Calm Calm -- 30.34 in1027.4 mb - 0.00 in0.0 mm 0.00 in0.0 mm
04:55 AM 46.5°F8.1°C 40.3°F4.6°C 79% Calm Calm -- 30.34 in1027.4 mb - 0.00 in0.0 mm 0.00 in0.0 mm
04:50 AM 46.6°F8.1°C 40.4°F4.7°C 79% Calm Calm -- 30.34 in1027.4 mb - 0.00 in0.0 mm 0.00 in0.0 mm
04:45 AM 46.7°F8.2°C 40.5°F4.7°C 79% Calm Calm -- 30.34 in1027.4 mb - 0.00 in0.0 mm 0.00 in0.0 mm
04:40 AM 46.8°F8.2°C 40.6°F4.8°C 79% Calm Calm -- 30.33 in1027.1 mb - 0.00 in0.0 mm 0.00 in0.0 mm
04:35 AM 46.8°F8.2°C 40.6°F4.8°C 79% Calm Calm -- 30.33 in1027.1 mb - 0.00 in0.0 mm 0.00 in0.0 mm
04:30 AM 46.9°F8.3°C 40.7°F4.8°C 79% Calm Calm -- 30.33 in1027.1 mb - 0.00 in0.0 mm 0.00 in0.0 mm
04:25 AM 47.0°F8.3°C 40.5°F4.7°C 78% Calm Calm -- 30.33 in1027.1 mb - 0.00 in0.0 mm 0.00 in0.0 mm
04:20 AM 47.1°F8.4°C 40.6°F4.8°C 78% Calm Calm -- 30.33 in1027.1 mb - 0.00 in0.0 mm 0.00 in0.0 mm
04:15 AM 47.2°F8.4°C 40.7°F4.8°C 78% Calm Calm -- 30.33 in1027.1 mb - 0.00 in0.0 mm 0.00 in0.0 mm
04:10 AM 47.3°F8.5°C 40.8°F4.9°C 78% Calm Calm -- 30.33 in1027.1 mb - 0.00 in0.0 mm 0.00 in0.0 mm
04:05 AM 47.4°F8.6°C 40.9°F4.9°C 78% Calm Calm -- 30.33 in1027.1 mb - 0.00 in0.0 mm 0.00 in0.0 mm
04:00 AM 47.6°F8.7°C 41.1°F5.1°C 78% Calm Calm -- 30.33 in1027.1 mb - 0.00 in0.0 mm 0.00 in0.0 mm
03:55 AM 47.7°F8.7°C 41.2°F5.1°C 78% Calm Calm -- 30.33 in1027.1 mb - 0.00 in0.0 mm 0.00 in0.0 mm
03:50 AM 47.7°F8.7°C 40.8°F4.9°C 77% Calm Calm -- 30.32 in1026.8 mb - 0.00 in0.0 mm 0.00 in0.0 mm
03:45 AM 47.8°F8.8°C 40.9°F4.9°C 77% Calm Calm -- 30.33 in1027.1 mb - 0.00 in0.0 mm 0.00 in0.0 mm
03:40 AM 47.8°F8.8°C 40.9°F4.9°C 77% Calm Calm 1.2 mph1.9 kmh 30.33 in1027.1 mb - 0.00 in0.0 mm 0.00 in0.0 mm
03:35 AM 47.9°F8.8°C 41.0°F5.0°C 77% Calm Calm -- 30.32 in1026.8 mb - 0.00 in0.0 mm 0.00 in0.0 mm
03:30 AM 48.0°F8.9°C 41.1°F5.1°C 77% Calm Calm -- 30.32 in1026.8 mb - 0.00 in0.0 mm 0.00 in0.0 mm
03:25 AM 48.1°F8.9°C 41.2°F5.1°C 77% Calm Calm -- 30.32 in1026.8 mb - 0.00 in0.0 mm 0.00 in0.0 mm
03:20 AM 48.2°F9.0°C 41.0°F5.0°C 76% Calm Calm -- 30.32 in1026.8 mb - 0.00 in0.0 mm 0.00 in0.0 mm
03:15 AM 48.3°F9.1°C 41.1°F5.1°C 76% Calm Calm -- 30.32 in1026.8 mb - 0.00 in0.0 mm 0.00 in0.0 mm
03:10 AM 48.4°F9.1°C 41.5°F5.3°C 77% Calm Calm -- 30.32 in1026.8 mb - 0.00 in0.0 mm 0.00 in0.0 mm
03:05 AM 48.5°F9.2°C 41.3°F5.2°C 76% Calm Calm -- 30.32 in1026.8 mb - 0.00 in0.0 mm 0.00 in0.0 mm
03:00 AM 48.6°F9.2°C 41.4°F5.2°C 76% Calm Calm -- 30.32 in1026.8 mb - 0.00 in0.0 mm 0.00 in0.0 mm
02:55 AM 48.7°F9.3°C 41.1°F5.1°C 75% Calm Calm -- 30.32 in1026.8 mb - 0.00 in0.0 mm 0.00 in0.0 mm
02:50 AM 48.8°F9.3°C 41.6°F5.3°C 76% Calm Calm -- 30.32 in1026.8 mb - 0.00 in0.0 mm 0.00 in0.0 mm
02:45 AM 48.9°F9.4°C 41.3°F5.2°C 75% Calm Calm -- 30.32 in1026.8 mb - 0.00 in0.0 mm 0.00 in0.0 mm
02:40 AM 49.0°F9.4°C 41.4°F5.2°C 75% Calm Calm -- 30.32 in1026.8 mb - 0.00 in0.0 mm 0.00 in0.0 mm
02:35 AM 49.1°F9.5°C 41.2°F5.1°C 74% Calm Calm -- 30.32 in1026.8 mb - 0.00 in0.0 mm 0.00 in0.0 mm
02:30 AM 49.2°F9.6°C 41.3°F5.2°C 74% Calm Calm -- 30.32 in1026.8 mb - 0.00 in0.0 mm 0.00 in0.0 mm
02:25 AM 49.4°F9.7°C 41.5°F5.3°C 74% Calm Calm -- 30.32 in1026.8 mb - 0.00 in0.0 mm 0.00 in0.0 mm
02:20 AM 49.6°F9.8°C 41.6°F5.3°C 74% Calm Calm -- 30.32 in1026.8 mb - 0.00 in0.0 mm 0.00 in0.0 mm
02:15 AM 49.7°F9.8°C 41.4°F5.2°C 73% Calm Calm 1.2 mph1.9 kmh 30.32 in1026.8 mb - 0.00 in0.0 mm 0.00 in0.0 mm
02:10 AM 49.9°F9.9°C 41.6°F5.3°C 73% Calm Calm -- 30.32 in1026.8 mb - 0.00 in0.0 mm 0.00 in0.0 mm
02:05 AM 50.0°F10.0°C 41.7°F5.4°C 73% Calm Calm -- 30.32 in1026.8 mb - 0.00 in0.0 mm 0.00 in0.0 mm
02:00 AM 50.1°F10.1°C 41.4°F5.2°C 72% Calm Calm -- 30.32 in1026.8 mb - 0.00 in0.0 mm 0.00 in0.0 mm
01:55 AM 50.2°F10.1°C 41.5°F5.3°C 72% Calm Calm -- 30.32 in1026.8 mb - 0.00 in0.0 mm 0.00 in0.0 mm
01:50 AM 50.3°F10.2°C 41.3°F5.2°C 71% Calm Calm -- 30.32 in1026.8 mb - 0.00 in0.0 mm 0.00 in0.0 mm
01:45 AM 50.4°F10.2°C 41.3°F5.2°C 71% Calm Calm -- 30.32 in1026.8 mb - 0.00 in0.0 mm 0.00 in0.0 mm
01:40 AM 50.4°F10.2°C 41.7°F5.4°C 72% Calm Calm 1.2 mph1.9 kmh 30.32 in1026.8 mb - 0.00 in0.0 mm 0.00 in0.0 mm
01:35 AM 50.5°F10.3°C 41.4°F5.2°C 71% Calm Calm 1.2 mph1.9 kmh 30.32 in1026.8 mb - 0.00 in0.0 mm 0.00 in0.0 mm
01:30 AM 50.5°F10.3°C 41.4°F5.2°C 71% Calm Calm -- 30.33 in1027.1 mb - 0.00 in0.0 mm 0.00 in0.0 mm
01:25 AM 50.6°F10.3°C 41.5°F5.3°C 71% 1.2 mph N1.9 kmh N 2.3 mph3.7 kmh 30.33 in1027.1 mb - 0.00 in0.0 mm 0.00 in0.0 mm
01:20 AM 50.6°F10.3°C 41.5°F5.3°C 71% Calm Calm -- 30.33 in1027.1 mb - 0.00 in0.0 mm 0.00 in0.0 mm
01:15 AM 50.7°F10.4°C 41.6°F5.3°C 71% Calm Calm 1.2 mph1.9 kmh 30.33 in1027.1 mb - 0.00 in0.0 mm 0.00 in0.0 mm
01:10 AM 50.8°F10.4°C 41.7°F5.4°C 71% 1.2 mph N1.9 kmh N 3.5 mph5.6 kmh 30.33 in1027.1 mb - 0.00 in0.0 mm 0.00 in0.0 mm
01:05 AM 50.9°F10.5°C 41.8°F5.4°C 71% 1.2 mph N1.9 kmh N 2.3 mph3.7 kmh 30.33 in1027.1 mb - 0.00 in0.0 mm 0.00 in0.0 mm
01:00 AM 51.0°F10.6°C 41.9°F5.5°C 71% 2.3 mph N3.7 kmh N 3.5 mph5.6 kmh 30.33 in1027.1 mb - 0.00 in0.0 mm 0.00 in0.0 mm
12:55 AM 51.2°F10.7°C 42.1°F5.6°C 71% 2.3 mph N3.7 kmh N 3.5 mph5.6 kmh 30.33 in1027.1 mb - 0.00 in0.0 mm 0.00 in0.0 mm
12:50 AM 51.3°F10.7°C 42.2°F5.7°C 71% 1.2 mph N1.9 kmh N 2.3 mph3.7 kmh 30.33 in1027.1 mb - 0.00 in0.0 mm 0.00 in0.0 mm
12:45 AM 51.5°F10.8°C 42.4°F5.8°C 71% 1.2 mph N1.9 kmh N 3.5 mph5.6 kmh 30.33 in1027.1 mb - 0.00 in0.0 mm 0.00 in0.0 mm
12:40 AM 51.7°F10.9°C 42.2°F5.7°C 70% 2.3 mph N3.7 kmh N 3.5 mph5.6 kmh 30.33 in1027.1 mb - 0.00 in0.0 mm 0.00 in0.0 mm
12:35 AM 51.9°F11.1°C 41.6°F5.3°C 68% 2.3 mph N3.7 kmh N 3.5 mph5.6 kmh 30.33 in1027.1 mb - 0.00 in0.0 mm 0.00 in0.0 mm
12:30 AM 52.1°F11.2°C 41.5°F5.3°C 67% 1.2 mph N1.9 kmh N 3.5 mph5.6 kmh 30.33 in1027.1 mb - 0.00 in0.0 mm 0.00 in0.0 mm
12:25 AM 52.2°F11.2°C 41.6°F5.3°C 67% 1.2 mph N1.9 kmh N 3.5 mph5.6 kmh 30.33 in1027.1 mb - 0.00 in0.0 mm 0.00 in0.0 mm
12:20 AM 52.3°F11.3°C 41.3°F5.2°C 66% 1.2 mph N1.9 kmh N 1.2 mph1.9 kmh 30.33 in1027.1 mb - 0.00 in0.0 mm 0.00 in0.0 mm
12:15 AM 52.4°F11.3°C 41.4°F5.2°C 66% 2.3 mph N3.7 kmh N 3.5 mph5.6 kmh 30.32 in1026.8 mb - 0.00 in0.0 mm 0.00 in0.0 mm
12:10 AM 52.3°F11.3°C 41.3°F5.2°C 66% 3.5 mph NNE5.6 kmh NNE 4.6 mph7.4 kmh 30.32 in1026.8 mb - 0.00 in0.0 mm 0.00 in0.0 mm
12:05 AM 52.4°F11.3°C 41.4°F5.2°C 66% 3.5 mph N5.6 kmh N 4.6 mph7.4 kmh 30.33 in1027.1 mb - 0.00 in0.0 mm 0.00 in0.0 mm
12:00 AM 52.4°F11.3°C 41.4°F5.2°C 66% 4.6 mph NE7.4 kmh NE 4.6 mph7.4 kmh 30.33 in1027.1 mb - 0.00 in0.0 mm 0.00 in0.0 mm